Time;durP1;ratioP1;P1;durP2;ratioP2;P2;SDS_P1;SDS_P2;PMS_P1;PMS_P2;Temp;Humidity;BMP_temperature;BMP_pressure;BME280_temperature;BME280_humidity;BME280_pressure;Samples;Min_cycle;Max_cycle;Signal;HPM_P1;HPM_P2
2023/06/17 00:01:36;;;;;;;7.70;6.67;;;15.70;99.90;;;;;;5015604;28;20194;-35
2023/06/17 00:04:03;;;;;;;7.87;7.07;;;15.70;99.90;;;;;;5015213;28;20175;-39
2023/06/17 00:06:28;;;;;;;7.63;6.03;;;15.70;99.90;;;;;;5013712;28;20249;-38
2023/06/17 00:08:54;;;;;;;9.30;7.20;;;15.70;99.90;;;;;;5015304;28;20183;-37
2023/06/17 00:11:20;;;;;;;7.10;6.40;;;15.70;99.90;;;;;;4980864;28;20215;-38
2023/06/17 00:13:46;;;;;;;8.07;6.97;;;15.70;99.90;;;;;;4993004;28;20172;-39
2023/06/17 00:16:12;;;;;;;9.07;7.10;;;15.60;99.90;;;;;;5007347;28;20199;-37
2023/06/17 00:18:41;;;;;;;7.63;6.83;;;15.60;99.90;;;;;;4984157;28;20208;-35
2023/06/17 00:21:08;;;;;;;7.53;6.77;;;15.50;99.90;;;;;;5010938;28;20175;-40
2023/06/17 00:23:34;;;;;;;7.23;6.50;;;15.50;99.90;;;;;;4993091;28;20276;-37
2023/06/17 00:26:01;;;;;;;9.43;7.30;;;15.50;99.90;;;;;;5008324;28;20333;-37
2023/06/17 00:28:26;;;;;;;8.97;6.90;;;15.50;99.90;;;;;;5010495;28;20191;-38
2023/06/17 00:30:52;;;;;;;8.90;7.20;;;15.50;99.90;;;;;;4981951;28;20188;-40
2023/06/17 00:33:18;;;;;;;7.77;6.73;;;15.50;99.90;;;;;;5010767;28;20207;-37
2023/06/17 00:35:44;;;;;;;8.23;7.23;;;15.50;99.90;;;;;;4995193;28;20175;-40
2023/06/17 00:38:10;;;;;;;8.20;7.20;;;15.50;99.90;;;;;;4979744;28;20204;-40
2023/06/17 00:40:36;;;;;;;8.70;6.90;;;15.50;99.90;;;;;;5008280;28;20233;-36
2023/06/17 00:43:02;;;;;;;6.87;6.20;;;15.40;99.90;;;;;;4992178;28;20187;-38
2023/06/17 00:45:28;;;;;;;8.70;6.90;;;15.40;99.90;;;;;;5008170;28;20186;-34
2023/06/17 00:47:54;;;;;;;7.63;6.87;;;15.40;99.90;;;;;;4984547;28;20195;-37
2023/06/17 00:50:20;;;;;;;7.43;6.73;;;15.40;99.90;;;;;;4988594;28;20179;-38
2023/06/17 00:52:50;;;;;;;7.77;7.07;;;15.30;99.90;;;;;;5005933;28;20214;-39
2023/06/17 00:55:16;;;;;;;7.60;6.90;;;15.30;99.90;;;;;;5011175;28;20176;-37
2023/06/17 00:57:45;;;;;;;10.03;6.77;;;15.30;99.90;;;;;;4994734;28;20245;-38
2023/06/17 01:00:12;;;;;;;8.33;7.27;;;15.20;99.90;;;;;;4993515;28;20180;-39
2023/06/17 01:02:43;;;;;;;8.00;7.20;;;15.20;99.90;;;;;;5007876;28;20191;-40
2023/06/17 01:05:12;;;;;;;9.60;6.80;;;15.20;99.90;;;;;;4994515;28;20183;-35
2023/06/17 01:08:12;;;;;;;9.33;7.33;;;15.30;99.90;;;;;;4994494;28;20211;-36
2023/06/17 01:10:48;;;;;;;8.33;7.20;;;15.30;99.90;;;;;;4988084;28;20507;-38
2023/06/17 01:13:16;;;;;;;8.40;7.60;;;15.40;99.90;;;;;;4999560;28;20207;-37
2023/06/17 01:15:45;;;;;;;10.30;6.90;;;15.30;99.90;;;;;;5002476;28;20175;-38
2023/06/17 01:18:17;;;;;;;7.73;6.93;;;15.30;99.90;;;;;;4994609;28;20254;-36
2023/06/17 01:20:45;;;;;;;8.97;7.13;;;15.30;99.90;;;;;;4984247;28;20180;-40
2023/06/17 01:23:12;;;;;;;8.47;6.80;;;15.40;99.90;;;;;;4994708;28;20219;-38
2023/06/17 01:25:39;;;;;;;7.70;6.90;;;15.30;99.90;;;;;;4986129;28;20278;-40
2023/06/17 01:28:16;;;;;;;8.43;7.50;;;15.30;99.90;;;;;;4993009;28;20218;-38
2023/06/17 01:30:54;;;;;;;7.90;7.10;;;15.30;99.90;;;;;;5002473;28;20250;-40
2023/06/17 01:33:21;;;;;;;9.27;7.93;;;15.20;99.90;;;;;;4993386;28;20234;-34
2023/06/17 01:35:54;;;;;;;9.80;7.90;;;15.10;99.90;;;;;;4993820;28;20182;-36
2023/06/17 01:38:33;;;;;;;9.50;7.87;;;15.00;99.90;;;;;;5010075;28;20178;-34
2023/06/17 01:41:04;;;;;;;8.73;7.73;;;15.00;99.90;;;;;;4994162;28;20175;-35
2023/06/17 01:43:34;;;;;;;8.83;7.93;;;15.00;99.90;;;;;;4991308;28;20279;-38
2023/06/17 01:46:04;;;;;;;9.03;7.30;;;15.00;99.90;;;;;;5007120;28;20218;-33
2023/06/17 01:48:32;;;;;;;8.73;7.83;;;14.90;99.90;;;;;;5008380;28;20250;-35
2023/06/17 01:50:58;;;;;;;8.07;7.27;;;14.90;99.90;;;;;;5010085;28;20199;-40
2023/06/17 01:53:24;;;;;;;10.23;8.20;;;14.80;99.90;;;;;;5017424;28;20211;-39
2023/06/17 01:55:51;;;;;;;8.63;7.67;;;14.80;99.90;;;;;;4989544;28;20178;-39
2023/06/17 01:58:17;;;;;;;8.77;7.87;;;14.80;99.90;;;;;;5003386;28;20176;-38
2023/06/17 02:00:43;;;;;;;10.17;7.53;;;14.80;99.90;;;;;;4994383;28;20296;-34
2023/06/17 02:03:09;;;;;;;10.07;7.97;;;14.70;99.90;;;;;;4993640;28;20179;-39
2023/06/17 02:05:35;;;;;;;8.53;7.23;;;14.60;99.90;;;;;;5002674;28;20197;-36
2023/06/17 02:08:04;;;;;;;9.17;8.27;;;14.50;99.90;;;;;;4992635;28;20333;-38
2023/06/17 02:10:32;;;;;;;8.43;7.47;;;14.40;99.90;;;;;;4983881;28;20281;-33
2023/06/17 02:13:00;;;;;;;8.97;7.20;;;14.30;99.90;;;;;;4989453;28;20211;-38
2023/06/17 02:15:26;;;;;;;10.80;8.40;;;14.20;99.90;;;;;;4989977;28;20277;-33
2023/06/17 02:17:53;;;;;;;8.47;7.47;;;14.10;99.90;;;;;;4990076;28;20286;-36
2023/06/17 02:20:19;;;;;;;9.47;7.20;;;14.10;99.90;;;;;;5006823;28;20186;-38
2023/06/17 02:22:45;;;;;;;8.53;6.83;;;14.10;99.90;;;;;;5007734;28;20186;-37
2023/06/17 02:25:11;;;;;;;8.60;7.07;;;14.10;99.90;;;;;;5010973;28;20183;-38
2023/06/17 02:27:37;;;;;;;9.83;7.67;;;14.00;99.90;;;;;;4992910;28;20222;-39
2023/06/17 02:30:03;;;;;;;9.00;7.30;;;14.00;99.90;;;;;;4979426;28;20187;-37
2023/06/17 02:32:30;;;;;;;8.30;7.03;;;14.10;99.90;;;;;;5007426;28;20208;-37
2023/06/17 02:34:57;;;;;;;8.83;7.63;;;14.00;99.90;;;;;;4988476;28;20187;-35
2023/06/17 02:37:23;;;;;;;11.93;8.37;;;14.00;99.90;;;;;;4988771;28;20297;-35
2023/06/17 02:39:49;;;;;;;11.27;8.17;;;14.00;99.90;;;;;;4992385;28;20298;-38
2023/06/17 02:42:15;;;;;;;10.33;8.00;;;14.00;99.90;;;;;;4999284;28;20231;-36
2023/06/17 02:44:41;;;;;;;8.00;7.20;;;14.00;99.90;;;;;;4989978;28;20194;-36
2023/06/17 02:47:07;;;;;;;9.97;7.40;;;13.90;99.90;;;;;;4992794;28;20209;-37
2023/06/17 02:49:33;;;;;;;10.83;8.20;;;13.90;99.90;;;;;;4990861;28;20272;-34
2023/06/17 02:52:00;;;;;;;8.73;7.00;;;13.90;99.90;;;;;;4985096;28;20236;-39
2023/06/17 02:54:26;;;;;;;10.73;7.37;;;13.90;99.90;;;;;;5015053;28;20181;-40
2023/06/17 02:56:53;;;;;;;9.70;7.90;;;13.80;99.90;;;;;;5004452;28;20684;-35
2023/06/17 02:59:18;;;;;;;9.47;7.50;;;13.80;99.90;;;;;;4989090;28;20180;-37
2023/06/17 03:01:46;;;;;;;8.30;7.47;;;13.80;99.90;;;;;;4982183;28;20207;-37
2023/06/17 03:04:13;;;;;;;9.20;7.37;;;13.80;99.90;;;;;;4992169;28;20181;-37
2023/06/17 03:06:44;;;;;;;9.17;8.17;;;13.80;99.90;;;;;;4983306;28;20213;-39
2023/06/17 03:09:11;;;;;;;8.57;7.60;;;13.70;99.90;;;;;;5013088;28;20183;-40
2023/06/17 03:11:37;;;;;;;9.03;7.90;;;13.60;99.90;;;;;;5005535;28;20216;-36
2023/06/17 03:14:07;;;;;;;9.57;7.33;;;13.60;99.90;;;;;;4989080;28;20186;-37
2023/06/17 03:16:38;;;;;;;9.23;8.03;;;13.60;99.90;;;;;;4992082;28;20282;-34
2023/06/17 03:19:05;;;;;;;8.27;7.37;;;13.50;99.90;;;;;;5003327;28;20180;-38
2023/06/17 03:21:39;;;;;;;9.40;7.77;;;13.50;99.90;;;;;;5004053;28;20190;-39
2023/06/17 03:24:05;;;;;;;8.70;7.43;;;13.50;99.90;;;;;;4993185;28;20182;-36
2023/06/17 03:26:32;;;;;;;10.90;8.03;;;13.50;99.90;;;;;;5000681;28;20293;-38
2023/06/17 03:28:58;;;;;;;11.47;8.13;;;13.50;99.90;;;;;;4987600;28;20277;-36
2023/06/17 03:31:24;;;;;;;10.23;8.23;;;13.50;99.90;;;;;;5005446;28;20191;-35
2023/06/17 03:33:52;;;;;;;9.53;7.90;;;13.40;99.90;;;;;;4991897;28;20248;-36
2023/06/17 03:36:19;;;;;;;9.93;7.87;;;13.40;99.90;;;;;;4986841;28;20284;-33
2023/06/17 03:38:46;;;;;;;10.13;7.47;;;13.50;99.90;;;;;;4989391;28;20190;-39
2023/06/17 03:41:12;;;;;;;8.40;7.50;;;13.50;99.90;;;;;;4992694;28;20177;-38
2023/06/17 03:43:38;;;;;;;9.37;7.27;;;13.40;99.90;;;;;;4983091;28;20294;-33
2023/06/17 03:46:04;;;;;;;8.57;7.67;;;13.40;99.90;;;;;;4983961;28;20182;-35
2023/06/17 03:48:35;;;;;;;10.57;8.10;;;13.30;99.90;;;;;;4984379;28;20213;-34
2023/06/17 03:51:02;;;;;;;9.80;7.80;;;13.30;99.90;;;;;;4995121;28;20181;-33
2023/06/17 03:53:29;;;;;;;8.50;7.60;;;13.20;99.90;;;;;;5013068;28;20236;-34
2023/06/17 03:55:56;;;;;;;9.33;7.93;;;13.10;99.90;;;;;;4996660;28;20173;-38
2023/06/17 03:58:22;;;;;;;9.13;7.80;;;13.10;99.90;;;;;;4995560;28;20183;-37
2023/06/17 04:00:48;;;;;;;11.00;8.07;;;13.00;99.90;;;;;;5004571;28;20182;-36
2023/06/17 04:03:15;;;;;;;8.47;7.57;;;13.10;99.90;;;;;;5009283;28;20185;-38
2023/06/17 04:05:42;;;;;;;8.90;7.97;;;13.20;99.90;;;;;;4987542;28;20724;-38
2023/06/17 04:08:09;;;;;;;8.73;7.83;;;13.30;99.90;;;;;;5011468;28;20206;-36
2023/06/17 04:10:35;;;;;;;8.80;7.90;;;13.30;99.90;;;;;;4994560;28;20186;-35
2023/06/17 04:13:01;;;;;;;8.27;7.47;;;13.40;99.90;;;;;;5004308;28;20216;-34
2023/06/17 04:15:28;;;;;;;14.27;7.47;;;13.40;99.90;;;;;;4995660;28;20205;-36
2023/06/17 04:17:53;;;;;;;9.43;8.27;;;13.40;99.90;;;;;;4989861;28;20200;-34
2023/06/17 04:20:19;;;;;;;9.63;8.50;;;13.50;99.90;;;;;;5010391;28;20180;-35
2023/06/17 04:22:46;;;;;;;10.77;9.00;;;13.50;99.90;;;;;;4984907;28;20198;-38
2023/06/17 04:25:15;;;;;;;9.07;8.00;;;13.50;99.90;;;;;;5006864;28;20192;-37
2023/06/17 04:27:44;;;;;;;11.67;8.87;;;13.60;99.90;;;;;;5009534;28;20205;-38
2023/06/17 04:30:11;;;;;;;11.37;8.63;;;13.70;99.90;;;;;;4984770;28;20271;-35
2023/06/17 04:32:39;;;;;;;9.13;7.73;;;13.70;99.90;;;;;;5009543;28;20308;-38
2023/06/17 04:35:10;;;;;;;10.67;8.20;;;13.80;99.90;;;;;;5003329;28;20217;-42
2023/06/17 04:37:40;;;;;;;10.73;8.23;;;13.80;99.90;;;;;;5005904;28;20237;-35
2023/06/17 04:40:12;;;;;;;9.37;8.37;;;13.90;99.90;;;;;;4994847;28;20171;-35
2023/06/17 04:42:44;;;;;;;9.13;8.10;;;13.90;99.90;;;;;;4994733;28;20180;-38
2023/06/17 04:45:10;;;;;;;9.00;8.13;;;13.90;99.90;;;;;;5022481;28;20184;-37
2023/06/17 04:47:36;;;;;;;8.63;7.73;;;14.00;99.90;;;;;;5004542;28;20215;-35
2023/06/17 04:50:03;;;;;;;11.33;9.00;;;14.10;99.90;;;;;;4991032;28;20278;-35
2023/06/17 04:52:30;;;;;;;8.67;7.77;;;14.10;99.90;;;;;;4999095;28;20212;-39
2023/06/17 04:54:57;;;;;;;12.13;9.30;;;14.20;99.90;;;;;;5017064;28;20213;-34
2023/06/17 04:57:23;;;;;;;10.17;9.00;;;14.20;99.90;;;;;;5007409;28;20254;-36
2023/06/17 04:59:51;;;;;;;10.47;8.90;;;14.30;99.90;;;;;;5013172;28;20270;-36
2023/06/17 05:02:19;;;;;;;10.17;8.43;;;14.30;99.90;;;;;;5009468;28;20317;-34
2023/06/17 05:04:45;;;;;;;10.30;8.00;;;14.30;99.90;;;;;;5005715;28;20270;-39
2023/06/17 05:07:11;;;;;;;10.60;8.73;;;14.40;99.90;;;;;;4998839;28;20302;-36
2023/06/17 05:09:39;;;;;;;11.33;9.40;;;14.40;99.90;;;;;;4993888;28;20194;-36
2023/06/17 05:12:06;;;;;;;12.67;9.73;;;14.50;99.90;;;;;;5010533;28;20195;-39
2023/06/17 05:14:32;;;;;;;12.57;8.93;;;14.60;99.90;;;;;;5002911;28;20189;-33
2023/06/17 05:16:58;;;;;;;9.63;8.70;;;14.60;99.90;;;;;;5009597;28;20202;-40
2023/06/17 05:19:24;;;;;;;9.93;8.23;;;14.70;99.90;;;;;;5010738;28;20188;-37
2023/06/17 05:21:50;;;;;;;11.40;8.50;;;14.80;99.90;;;;;;4988857;28;20187;-35
2023/06/17 05:24:20;;;;;;;9.43;8.30;;;14.90;99.90;;;;;;5003684;28;20187;-37
2023/06/17 05:26:46;;;;;;;9.43;8.47;;;14.90;99.90;;;;;;5008753;28;20213;-37
2023/06/17 05:29:12;;;;;;;9.90;8.57;;;14.90;99.90;;;;;;4990390;28;20190;-35
2023/06/17 05:31:41;;;;;;;8.97;8.07;;;15.00;99.90;;;;;;4985068;28;20226;-36
2023/06/17 05:34:07;;;;;;;11.53;8.57;;;15.00;99.90;;;;;;4992454;28;20734;-39
2023/06/17 05:36:34;;;;;;;9.23;8.00;;;15.00;99.90;;;;;;4985380;28;20207;-36
2023/06/17 05:39:00;;;;;;;10.47;8.70;;;15.10;99.90;;;;;;4994532;28;20171;-36
2023/06/17 05:41:26;;;;;;;10.47;8.90;;;15.20;99.90;;;;;;4993787;28;20186;-40
2023/06/17 05:43:53;;;;;;;10.20;8.67;;;15.30;99.90;;;;;;5006344;28;20202;-34
2023/06/17 05:46:19;;;;;;;11.23;9.07;;;15.40;99.90;;;;;;4986106;28;20196;-37
2023/06/17 05:48:45;;;;;;;9.63;8.73;;;15.60;99.90;;;;;;5007828;28;20179;-37
2023/06/17 05:51:11;;;;;;;9.80;8.37;;;15.60;99.90;;;;;;4994197;28;20226;-38
2023/06/17 05:53:37;;;;;;;9.87;8.50;;;15.70;99.90;;;;;;4991505;28;20211;-35
2023/06/17 05:56:08;;;;;;;9.83;8.60;;;15.80;99.90;;;;;;4993574;28;20186;-36
2023/06/17 05:58:35;;;;;;;9.87;8.37;;;16.00;99.90;;;;;;5007119;28;20246;-39
2023/06/17 06:01:07;;;;;;;10.77;8.87;;;16.20;99.90;;;;;;5008765;28;20179;-34
2023/06/17 06:03:34;;;;;;;9.37;8.37;;;16.40;99.90;;;;;;4993910;28;20184;-38
2023/06/17 06:06:01;;;;;;;11.83;9.13;;;16.50;99.90;;;;;;4993905;28;20190;-37
2023/06/17 06:08:28;;;;;;;10.00;8.67;;;16.50;99.90;;;;;;5005409;28;20244;-36
2023/06/17 06:10:54;;;;;;;10.00;8.93;;;16.70;99.90;;;;;;5007289;28;20180;-36
2023/06/17 06:13:20;;;;;;;11.00;9.57;;;16.80;99.90;;;;;;4992742;28;20210;-34
2023/06/17 06:15:46;;;;;;;10.00;9.00;;;17.00;99.90;;;;;;4993735;28;20186;-37
2023/06/17 06:18:13;;;;;;;11.73;9.57;;;17.20;99.90;;;;;;4981281;28;20195;-36
2023/06/17 06:20:39;;;;;;;10.30;9.20;;;17.30;99.90;;;;;;4990370;28;20179;-36
2023/06/17 06:23:06;;;;;;;12.03;8.80;;;17.50;99.90;;;;;;4992216;28;20261;-37
2023/06/17 06:25:32;;;;;;;10.05;9.05;;;17.70;99.90;;;;;;5003866;28;20290;-37
2023/06/17 06:28:00;;;;;;;61.35;18.65;;;17.90;99.90;;;;;;4979433;28;20215;-40
2023/06/17 06:30:28;;;;;;;13.45;9.13;;;18.10;99.90;;;;;;5006436;28;20279;-39
2023/06/17 06:32:55;;;;;;;9.48;8.48;;;18.20;99.90;;;;;;5008586;28;20211;-40
2023/06/17 06:35:22;;;;;;;10.38;8.07;;;18.40;99.90;;;;;;4981220;28;20214;-37
2023/06/17 06:37:49;;;;;;;9.40;8.38;;;18.60;99.90;;;;;;5005300;28;20196;-38
2023/06/17 06:40:16;;;;;;;10.15;8.82;;;18.70;99.90;;;;;;4993356;28;20181;-38
2023/06/17 06:42:42;;;;;;;9.48;8.38;;;18.80;99.90;;;;;;4984866;28;20278;-38
2023/06/17 06:45:24;;;;;;;8.85;8.05;;;19.00;99.90;;;;;;4981396;28;20262;-41
2023/06/17 06:47:50;;;;;;;9.40;8.32;;;19.30;99.90;;;;;;5008614;28;20231;-37
2023/06/17 06:50:16;;;;;;;9.27;8.38;;;19.40;99.90;;;;;;4981244;28;20199;-35
2023/06/17 06:52:46;;;;;;;8.88;8.02;;;19.60;99.90;;;;;;5008177;28;20216;-40
2023/06/17 06:55:12;;;;;;;11.27;8.05;;;19.80;99.90;;;;;;4980465;28;20187;-39
2023/06/17 06:57:38;;;;;;;9.65;8.15;;;19.90;99.90;;;;;;5006763;28;20215;-40
2023/06/17 07:00:08;;;;;;;10.65;8.52;;;19.90;99.90;;;;;;4981287;28;20184;-36
2023/06/17 07:02:36;;;;;;;8.07;7.30;;;20.00;99.90;;;;;;5006582;28;20192;-41
2023/06/17 07:05:07;;;;;;;9.38;7.47;;;20.30;99.90;;;;;;4993906;28;20179;-39
2023/06/17 07:07:39;;;;;;;8.35;7.55;;;20.50;99.90;;;;;;4976948;28;20211;-35
2023/06/17 07:10:05;;;;;;;8.88;7.97;;;20.60;99.90;;;;;;4993060;28;20175;-38
2023/06/17 07:12:31;;;;;;;10.18;8.45;;;20.80;99.90;;;;;;5001581;28;20207;-38
2023/06/17 07:14:58;;;;;;;8.10;7.15;;;20.90;99.90;;;;;;5009888;28;20179;-38
2023/06/17 07:17:23;;;;;;;9.30;7.53;;;21.00;99.90;;;;;;4977338;28;20231;-36
2023/06/17 07:19:49;;;;;;;7.80;7.05;;;21.10;99.90;;;;;;5008356;28;20250;-35
2023/06/17 07:22:15;;;;;;;7.82;7.10;;;21.30;99.90;;;;;;4985370;28;20194;-35
2023/06/17 07:24:41;;;;;;;7.40;6.60;;;21.50;99.90;;;;;;5010779;28;20191;-41
2023/06/17 07:27:07;;;;;;;8.60;7.10;;;21.80;99.90;;;;;;4984553;28;20199;-41
2023/06/17 07:29:33;;;;;;;7.85;6.85;;;21.90;99.90;;;;;;5010092;28;20222;-41
2023/06/17 07:31:59;;;;;;;8.40;7.40;;;21.90;99.90;;;;;;4993917;28;20261;-40
2023/06/17 07:34:24;;;;;;;8.55;7.07;;;22.00;99.90;;;;;;4994014;28;20223;-36
2023/06/17 07:36:52;;;;;;;7.40;6.70;;;22.00;99.90;;;;;;4993375;28;20200;-36
2023/06/17 07:39:21;;;;;;;8.25;6.57;;;22.20;99.90;;;;;;4993882;28;20184;-37
2023/06/17 07:41:47;;;;;;;6.88;6.28;;;22.30;99.90;;;;;;4994130;28;20176;-41
2023/06/17 07:44:13;;;;;;;7.60;6.90;;;22.60;99.90;;;;;;4993785;28;20176;-37
2023/06/17 07:46:39;;;;;;;7.05;6.40;;;22.70;99.90;;;;;;4996112;28;20199;-39
2023/06/17 07:49:05;;;;;;;7.40;6.50;;;22.90;99.90;;;;;;4993654;28;20187;-38
2023/06/17 07:51:31;;;;;;;7.60;6.38;;;23.10;99.90;;;;;;4996995;28;20183;-39
2023/06/17 07:53:56;;;;;;;9.18;6.15;;;23.00;99.90;;;;;;4994178;28;20188;-39
2023/06/17 07:56:28;;;;;;;6.30;5.75;;;23.20;99.90;;;;;;5007673;28;20325;-39
2023/06/17 07:58:54;;;;;;;6.50;5.93;;;23.40;99.90;;;;;;4980269;28;20188;-39
2023/06/17 08:01:20;;;;;;;6.30;5.70;;;23.50;99.90;;;;;;4996685;28;20187;-37
2023/06/17 08:03:46;;;;;;;6.57;5.50;;;23.40;99.90;;;;;;5002271;28;20215;-37
2023/06/17 08:06:13;;;;;;;9.82;6.32;;;23.60;99.90;;;;;;4983274;28;20235;-37
2023/06/17 08:08:40;;;;;;;7.07;5.78;;;23.80;99.90;;;;;;5009656;28;20195;-36
2023/06/17 08:11:07;;;;;;;7.43;6.40;;;23.80;99.90;;;;;;4996522;28;20206;-37
2023/06/17 08:13:33;;;;;;;7.32;6.43;;;23.70;99.90;;;;;;4981149;28;20211;-37
2023/06/17 08:15:59;;;;;;;7.40;6.70;;;23.60;99.90;;;;;;5012340;28;20230;-37
2023/06/17 08:18:25;;;;;;;8.48;6.40;;;23.80;99.90;;;;;;4981784;28;20188;-39
2023/06/17 08:20:51;;;;;;;7.82;6.60;;;24.00;99.90;;;;;;4994392;28;20176;-39
2023/06/17 08:23:17;;;;;;;7.35;6.13;;;24.20;99.90;;;;;;4998586;28;20179;-41
2023/06/17 08:25:42;;;;;;;7.15;6.55;;;24.20;99.90;;;;;;5009973;28;20674;-39
2023/06/17 08:28:08;;;;;;;8.02;6.32;;;24.50;99.90;;;;;;5015797;28;20207;-37
2023/06/17 08:30:34;;;;;;;7.88;6.55;;;24.60;99.90;;;;;;5007537;28;20188;-40
2023/06/17 08:33:00;;;;;;;10.02;6.80;;;24.80;99.90;;;;;;5008617;28;20207;-39
2023/06/17 08:35:26;;;;;;;6.68;5.97;;;25.00;99.90;;;;;;4990443;28;20186;-38
2023/06/17 08:37:52;;;;;;;6.65;6.05;;;25.20;99.90;;;;;;4991914;28;20210;-35
2023/06/17 08:40:19;;;;;;;8.80;5.93;;;25.60;99.90;;;;;;5001054;28;20199;-38
2023/06/17 08:42:46;;;;;;;6.45;5.85;;;25.90;99.90;;;;;;4992779;28;20216;-39
2023/06/17 08:45:13;;;;;;;7.05;5.53;;;26.10;99.90;;;;;;4992863;28;20278;-40
2023/06/17 08:47:38;;;;;;;7.32;5.50;;;26.30;98.30;;;;;;4991803;28;20211;-41
2023/06/17 08:50:06;;;;;;;7.47;6.13;;;26.40;97.20;;;;;;5009061;28;20241;-41
2023/06/17 08:52:34;;;;;;;7.03;6.22;;;26.50;96.50;;;;;;4991729;28;20293;-38
2023/06/17 08:55:02;;;;;;;8.77;6.43;;;26.40;97.40;;;;;;4992759;28;20179;-41
2023/06/17 08:57:28;;;;;;;6.03;5.53;;;26.60;97.50;;;;;;5008556;28;20218;-38
2023/06/17 08:59:54;;;;;;;6.63;5.88;;;26.70;97.00;;;;;;5009978;28;20183;-41
2023/06/17 09:02:21;;;;;;;6.05;5.55;;;26.90;97.30;;;;;;5002537;28;20176;-41
2023/06/17 09:04:46;;;;;;;10.43;6.13;;;27.20;97.30;;;;;;5009923;28;20191;-39
2023/06/17 09:07:13;;;;;;;6.35;5.75;;;27.30;96.30;;;;;;4982184;28;20220;-40
2023/06/17 09:09:39;;;;;;;7.00;4.72;;;27.50;96.00;;;;;;5008636;28;20270;-39
2023/06/17 09:12:06;;;;;;;4.85;4.35;;;27.50;90.30;;;;;;4983712;28;20218;-40
2023/06/17 09:14:33;;;;;;;4.95;4.38;;;27.60;87.50;;;;;;5008514;28;20188;-41
2023/06/17 09:17:00;;;;;;;5.20;4.72;;;27.50;89.40;;;;;;4994485;28;20203;-41
2023/06/17 09:19:29;;;;;;;5.63;4.32;;;27.60;88.30;;;;;;4995334;28;20194;-41
2023/06/17 09:21:56;;;;;;;4.60;4.13;;;27.80;87.90;;;;;;4988784;28;20187;-40
2023/06/17 09:24:30;;;;;;;6.25;3.80;;;27.90;86.50;;;;;;5011303;28;20182;-39
2023/06/17 09:26:55;;;;;;;5.93;3.85;;;28.20;83.10;;;;;;5003021;28;20222;-36
2023/06/17 09:29:21;;;;;;;4.55;4.10;;;28.50;82.90;;;;;;4989230;28;20275;-40
2023/06/17 09:31:55;;;;;;;5.95;4.50;;;28.50;77.50;;;;;;5009366;28;20194;-42
2023/06/17 09:34:21;;;;;;;4.50;3.97;;;28.40;76.70;;;;;;4981361;28;20184;-39
2023/06/17 09:37:00;;;;;;;6.43;4.43;;;28.50;78.90;;;;;;4992511;28;20231;-39
2023/06/17 09:39:33;;;;;;;4.70;4.30;;;28.70;78.10;;;;;;4980541;28;20187;-41
2023/06/17 09:42:10;;;;;;;7.85;4.50;;;28.70;78.00;;;;;;5010350;28;20197;-39
2023/06/17 09:44:43;;;;;;;4.82;4.38;;;28.60;80.20;;;;;;4979108;28;20668;-37
2023/06/17 09:47:10;;;;;;;5.03;4.30;;;28.70;80.20;;;;;;4998268;28;20215;-40
2023/06/17 09:49:36;;;;;;;5.18;4.60;;;29.00;80.60;;;;;;4986858;28;20191;-41
2023/06/17 09:52:05;;;;;;;5.43;4.45;;;29.20;80.00;;;;;;4991247;28;20211;-42
2023/06/17 09:54:33;;;;;;;5.70;4.85;;;29.40;81.30;;;;;;4991168;28;20184;-37
2023/06/17 09:57:03;;;;;;;5.40;4.90;;;29.20;79.40;;;;;;4990101;28;20204;-38
2023/06/17 09:59:31;;;;;;;5.20;4.43;;;28.90;78.10;;;;;;4990874;28;20184;-42
2023/06/17 10:01:57;;;;;;;4.65;4.22;;;29.00;80.30;;;;;;4992051;28;20191;-40
2023/06/17 10:04:23;;;;;;;5.88;4.70;;;29.20;81.40;;;;;;4991388;28;20633;-38
2023/06/17 10:06:51;;;;;;;4.65;4.25;;;29.00;77.90;;;;;;5007109;28;20223;-40
2023/06/17 10:09:18;;;;;;;7.28;4.50;;;29.00;76.50;;;;;;5007219;28;20198;-42
2023/06/17 10:11:49;;;;;;;5.85;4.88;;;29.20;77.40;;;;;;4991090;28;20211;-38
2023/06/17 10:14:27;;;;;;;17.75;4.93;;;29.20;77.60;;;;;;4991130;28;20191;-41
2023/06/17 10:16:54;;;;;;;5.65;4.47;;;28.80;77.40;;;;;;5008776;28;20210;-44
2023/06/17 10:19:25;;;;;;;4.88;4.30;;;28.70;78.50;;;;;;4995346;28;20180;-38
2023/06/17 10:21:54;;;;;;;7.50;4.25;;;28.40;78.40;;;;;;5010373;28;20194;-38
2023/06/17 10:24:23;;;;;;;5.50;4.40;;;28.20;78.30;;;;;;5002351;28;20186;-41
2023/06/17 10:26:52;;;;;;;6.25;4.68;;;28.20;79.60;;;;;;4998607;28;20204;-37
2023/06/17 10:29:21;;;;;;;6.22;5.00;;;28.40;80.00;;;;;;4990190;28;20179;-41
2023/06/17 10:31:49;;;;;;;5.72;4.70;;;28.70;80.20;;;;;;4990526;28;20220;-40
2023/06/17 10:34:21;;;;;;;6.13;4.97;;;28.80;77.80;;;;;;5005962;28;20182;-42
2023/06/17 10:36:57;;;;;;;5.18;4.78;;;28.70;76.80;;;;;;5006836;28;20235;-40
2023/06/17 10:39:24;;;;;;;6.60;4.85;;;28.80;79.60;;;;;;5006939;28;20184;-41
2023/06/17 10:41:55;;;;;;;5.20;4.68;;;29.00;79.00;;;;;;4990556;28;20219;-41
2023/06/17 10:44:35;;;;;;;5.28;4.78;;;29.10;75.50;;;;;;5007220;28;20187;-39
2023/06/17 10:47:14;;;;;;;4.90;4.40;;;29.00;78.30;;;;;;4990191;28;20253;-41
2023/06/17 10:49:45;;;;;;;5.22;4.72;;;28.80;75.90;;;;;;5006141;28;20652;-39
2023/06/17 10:52:18;;;;;;;5.40;4.53;;;28.70;75.30;;;;;;4993946;28;20282;-38
2023/06/17 10:54:55;;;;;;;6.63;4.40;;;28.60;75.80;;;;;;5009377;28;20179;-38
2023/06/17 10:57:30;;;;;;;5.75;4.55;;;28.60;78.70;;;;;;5002755;28;20241;-38
2023/06/17 11:00:19;;;;;;;4.68;4.22;;;28.40;76.20;;;;;;4993222;28;20256;-40
2023/06/17 11:02:47;;;;;;;5.75;4.55;;;28.40;78.50;;;;;;4991334;28;20271;-40
2023/06/17 11:05:15;;;;;;;4.30;3.97;;;28.70;77.20;;;;;;4990517;28;20196;-40
2023/06/17 11:07:41;;;;;;;4.70;4.30;;;29.20;78.20;;;;;;4989636;28;20223;-40
2023/06/17 11:10:08;;;;;;;5.15;4.70;;;29.40;78.20;;;;;;4998447;28;20176;-42
2023/06/17 11:12:41;;;;;;;5.05;4.55;;;29.90;76.80;;;;;;4981911;28;20208;-40
2023/06/17 11:15:09;;;;;;;6.55;4.70;;;30.30;75.70;;;;;;4997750;28;20198;-40
2023/06/17 11:17:37;;;;;;;5.05;4.43;;;30.70;74.70;;;;;;4997358;28;20215;-41
2023/06/17 11:20:07;;;;;;;5.07;4.60;;;30.70;74.70;;;;;;4985283;28;20190;-40
2023/06/17 11:22:38;;;;;;;4.85;4.28;;;30.60;72.50;;;;;;4997484;28;20188;-39
2023/06/17 11:25:05;;;;;;;5.43;4.93;;;30.40;69.90;;;;;;4993554;28;20265;-41
2023/06/17 11:27:32;;;;;;;6.93;4.43;;;30.20;69.50;;;;;;5001052;28;20203;-37
2023/06/17 11:29:58;;;;;;;5.05;4.55;;;30.00;70.80;;;;;;5009387;28;20199;-42
2023/06/17 11:32:24;;;;;;;5.07;4.18;;;30.00;72.70;;;;;;4987553;28;20214;-40
2023/06/17 11:34:51;;;;;;;4.95;4.55;;;29.90;75.00;;;;;;4987705;28;20183;-40
2023/06/17 11:37:18;;;;;;;5.00;4.60;;;30.20;73.10;;;;;;5004141;28;20219;-40
2023/06/17 11:39:44;;;;;;;5.00;4.50;;;29.90;71.30;;;;;;5008646;28;20175;-41
2023/06/17 11:42:11;;;;;;;4.63;4.22;;;29.90;73.20;;;;;;4999190;28;20180;-41
2023/06/17 11:44:38;;;;;;;7.30;4.60;;;29.50;74.80;;;;;;4996387;28;20187;-41
2023/06/17 11:47:08;;;;;;;7.22;4.32;;;29.40;75.90;;;;;;5008871;28;20203;-39
2023/06/17 11:49:35;;;;;;;5.20;4.28;;;29.30;76.90;;;;;;4991243;28;20282;-40
2023/06/17 11:52:09;;;;;;;5.10;4.00;;;29.40;74.50;;;;;;4981674;28;20222;-42
2023/06/17 11:54:48;;;;;;;4.70;4.20;;;29.40;74.20;;;;;;5001627;28;20266;-42
2023/06/17 11:57:21;;;;;;;6.03;4.22;;;29.50;74.50;;;;;;4994286;28;20203;-41
2023/06/17 11:59:56;;;;;;;5.82;4.15;;;29.50;75.40;;;;;;5005232;28;20218;-42
2023/06/17 12:02:27;;;;;;;15.43;6.30;;;29.60;75.80;;;;;;5012087;28;20187;-39
2023/06/17 12:04:59;;;;;;;6.97;4.50;;;29.90;72.10;;;;;;5014903;28;20184;-41
2023/06/17 12:07:28;;;;;;;5.70;4.47;;;30.00;72.90;;;;;;5005301;28;20222;-39
2023/06/17 12:09:54;;;;;;;4.63;4.22;;;29.90;74.00;;;;;;5001961;28;20277;-42
2023/06/17 12:12:28;;;;;;;5.60;4.80;;;30.20;70.80;;;;;;5006578;28;20213;-41
2023/06/17 12:15:08;;;;;;;4.90;4.43;;;30.30;70.40;;;;;;4995395;28;20183;-42
2023/06/17 12:17:45;;;;;;;5.95;5.32;;;30.60;69.40;;;;;;5015504;28;20207;-42
2023/06/17 12:20:19;;;;;;;6.18;4.65;;;30.50;70.10;;;;;;5017354;28;20183;-41
2023/06/17 12:22:48;;;;;;;5.63;4.30;;;29.90;68.70;;;;;;5008124;28;20184;-41
2023/06/17 12:25:15;;;;;;;4.88;4.47;;;29.60;68.80;;;;;;5001423;28;20190;-42
2023/06/17 12:27:45;;;;;;;4.63;4.18;;;29.80;70.10;;;;;;5018619;28;20303;-42
2023/06/17 12:30:20;;;;;;;5.32;4.50;;;30.20;69.70;;;;;;5020175;28;20270;-41
2023/06/17 12:32:53;;;;;;;5.18;4.40;;;30.40;69.30;;;;;;4992294;28;20218;-42
2023/06/17 12:35:25;;;;;;;5.20;4.10;;;30.30;69.80;;;;;;5002550;28;20188;-40
2023/06/17 12:37:55;;;;;;;4.22;3.80;;;30.50;69.90;;;;;;5018022;28;20207;-41
2023/06/17 12:40:24;;;;;;;4.18;3.65;;;30.40;69.30;;;;;;5016185;28;20184;-43
2023/06/17 12:42:51;;;;;;;4.57;4.18;;;30.30;69.60;;;;;;5006156;28;20269;-41
2023/06/17 12:45:18;;;;;;;4.22;3.88;;;30.10;68.90;;;;;;5008080;28;20183;-41
2023/06/17 12:47:43;;;;;;;4.13;3.67;;;30.20;68.90;;;;;;4992729;28;20207;-44
2023/06/17 12:50:11;;;;;;;4.70;4.20;;;30.50;69.10;;;;;;4994244;28;20199;-41